Time;durP1;ratioP1;P1;durP2;ratioP2;P2;SDS_P1;SDS_P2;PMS_P1;PMS_P2;Temp;Humidity;BMP_temperature;BMP_pressure;BME280_temperature;BME280_humidity;BME280_pressure;Samples;Min_cycle;Max_cycle;Signal;HPM_P1;HPM_P2
2022/09/20 00:00:46;;;;;;;3.10;1.33;;;9.90;99.90;;;;;;5013291;28;20767;-83
2022/09/20 00:03:14;;;;;;;1.60;1.47;;;9.80;99.90;;;;;;5016513;28;20286;-84
2022/09/20 00:05:42;;;;;;;6.00;1.50;;;9.90;99.90;;;;;;4999488;28;20216;-83
2022/09/20 00:08:12;;;;;;;3.10;1.30;;;9.90;99.90;;;;;;5010779;28;20216;-84
2022/09/20 00:10:38;;;;;;;3.43;1.53;;;9.80;99.90;;;;;;5010762;28;20205;-83
2022/09/20 00:13:09;;;;;;;8.80;1.80;;;9.80;99.90;;;;;;5014914;28;20284;-83
2022/09/20 00:15:43;;;;;;;4.23;1.40;;;9.80;99.90;;;;;;5014639;28;20204;-83
2022/09/20 00:18:10;;;;;;;2.33;1.30;;;9.80;99.90;;;;;;5012297;28;20311;-83
2022/09/20 00:20:36;;;;;;;1.97;1.73;;;9.80;99.90;;;;;;5016236;28;20224;-83
2022/09/20 00:23:02;;;;;;;3.93;1.60;;;9.90;99.90;;;;;;5011099;28;20182;-83
2022/09/20 00:25:27;;;;;;;1.53;1.10;;;9.90;99.90;;;;;;5013912;28;20180;-84
2022/09/20 00:27:53;;;;;;;4.13;1.93;;;9.80;99.90;;;;;;5009008;28;20215;-83
2022/09/20 00:30:18;;;;;;;3.83;1.70;;;9.80;99.90;;;;;;5013676;28;20201;-83
2022/09/20 00:32:44;;;;;;;1.73;1.17;;;9.80;99.90;;;;;;5008835;28;20201;-83
2022/09/20 00:35:09;;;;;;;2.53;1.40;;;9.70;99.90;;;;;;5005779;28;20189;-82
2022/09/20 00:37:40;;;;;;;1.43;1.33;;;9.70;99.90;;;;;;5010730;28;20181;-82
2022/09/20 00:40:15;;;;;;;3.17;1.40;;;9.70;99.90;;;;;;5012231;28;20233;-83
2022/09/20 00:42:41;;;;;;;3.43;1.60;;;9.70;99.90;;;;;;4991122;28;20205;-83
2022/09/20 00:45:13;;;;;;;5.30;2.23;;;9.70;99.90;;;;;;5010410;28;20758;-83
2022/09/20 00:48:14;;;;;;;3.03;1.60;;;9.60;99.90;;;;;;5015024;28;20205;-82
2022/09/20 00:50:47;;;;;;;3.27;1.60;;;9.60;99.90;;;;;;5009708;28;20745;-82
2022/09/20 00:53:30;;;;;;;5.00;2.63;;;9.60;99.90;;;;;;5008621;28;20211;-83
2022/09/20 00:56:11;;;;;;;2.87;1.47;;;9.60;99.90;;;;;;4996757;28;20216;-83
2022/09/20 00:58:45;;;;;;;2.77;1.73;;;9.60;99.90;;;;;;5014418;28;20173;-83
2022/09/20 01:01:12;;;;;;;2.63;1.57;;;9.60;99.90;;;;;;5009964;28;20220;-83
2022/09/20 01:03:39;;;;;;;1.33;1.20;;;9.60;99.90;;;;;;5010018;28;20205;-84
2022/09/20 01:06:09;;;;;;;3.83;1.53;;;9.70;99.90;;;;;;4991480;28;20619;-83
2022/09/20 01:08:35;;;;;;;1.97;1.37;;;9.60;99.90;;;;;;5007664;28;20574;-83
2022/09/20 01:11:01;;;;;;;3.30;1.20;;;9.70;99.90;;;;;;5007299;28;20227;-82
2022/09/20 01:13:27;;;;;;;1.83;1.10;;;9.70;99.90;;;;;;5013498;28;20173;-83
2022/09/20 01:15:55;;;;;;;2.97;1.50;;;9.70;99.90;;;;;;4988852;28;20245;-83
2022/09/20 01:18:22;;;;;;;2.10;1.43;;;9.70;99.90;;;;;;4994088;28;20228;-83
2022/09/20 01:20:49;;;;;;;3.10;1.70;;;9.70;99.90;;;;;;5012149;28;20292;-83
2022/09/20 01:23:44;;;;;;;4.33;1.20;;;9.70;99.90;;;;;;5012181;28;20213;-83
2022/09/20 01:26:37;;;;;;;1.70;1.07;;;9.70;99.90;;;;;;5006562;28;20560;-83
2022/09/20 01:29:30;;;;;;;1.40;1.30;;;9.70;99.90;;;;;;5012385;28;20292;-83
2022/09/20 01:32:00;;;;;;;3.90;1.40;;;9.70;99.90;;;;;;5009006;28;20694;-83
2022/09/20 01:34:40;;;;;;;3.47;1.43;;;9.80;99.90;;;;;;4987352;28;20649;-83
2022/09/20 01:37:13;;;;;;;2.50;1.20;;;9.70;99.90;;;;;;4992662;28;20312;-81
2022/09/20 01:40:12;;;;;;;4.03;1.60;;;9.70;99.90;;;;;;5010191;28;20212;-80
2022/09/20 01:42:45;;;;;;;3.27;1.30;;;9.70;99.90;;;;;;4989644;28;20248;-83
2022/09/20 01:45:17;;;;;;;2.83;1.07;;;9.60;99.90;;;;;;5005081;28;20211;-83
2022/09/20 01:47:46;;;;;;;3.03;1.10;;;9.60;99.90;;;;;;5011408;28;20216;-83
2022/09/20 01:50:39;;;;;;;3.13;1.37;;;9.60;99.90;;;;;;5006996;28;20214;-83
2022/09/20 01:53:23;;;;;;;2.57;0.90;;;9.60;99.90;;;;;;5007855;28;20173;-83
2022/09/20 01:56:16;;;;;;;2.70;0.90;;;9.60;99.90;;;;;;5011276;28;20185;-83
2022/09/20 01:59:25;;;;;;;2.30;0.90;;;9.50;99.90;;;;;;5006574;28;20205;-82
2022/09/20 02:01:56;;;;;;;3.43;1.40;;;9.60;99.90;;;;;;5005116;28;20276;-83
2022/09/20 02:04:41;;;;;;;1.77;0.90;;;9.60;99.90;;;;;;5004292;28;20638;-83
2022/09/20 02:07:28;;;;;;;3.03;0.90;;;9.50;99.90;;;;;;5005489;28;20208;-83
2022/09/20 02:10:21;;;;;;;1.17;0.80;;;9.50;99.90;;;;;;5005609;28;20212;-81
2022/09/20 02:12:51;;;;;;;1.87;0.90;;;9.50;99.90;;;;;;5010852;28;20275;-84
2022/09/20 02:15:26;;;;;;;1.87;1.00;;;9.50;99.90;;;;;;4988579;28;20209;-83
2022/09/20 02:18:13;;;;;;;1.57;1.13;;;9.50;99.90;;;;;;4987779;28;20227;-83
2022/09/20 02:21:09;;;;;;;2.70;0.80;;;9.50;99.90;;;;;;4990054;28;20236;-83
2022/09/20 02:23:53;;;;;;;1.20;0.97;;;9.50;99.90;;;;;;4989209;28;20236;-83
2022/09/20 02:26:36;;;;;;;1.53;1.20;;;9.50;99.90;;;;;;5005021;28;20203;-82
2022/09/20 02:29:20;;;;;;;3.90;1.20;;;9.50;99.90;;;;;;5008472;28;20204;-82
2022/09/20 02:32:19;;;;;;;1.17;0.87;;;9.60;99.90;;;;;;4992737;28;20288;-82
2022/09/20 02:35:18;;;;;;;3.07;1.20;;;9.60;99.90;;;;;;5004743;28;20230;-83
2022/09/20 02:38:01;;;;;;;1.83;0.83;;;9.60;99.90;;;;;;5010351;28;20205;-83
2022/09/20 02:40:53;;;;;;;1.77;0.90;;;9.60;99.90;;;;;;5004420;28;20201;-83
2022/09/20 02:43:49;;;;;;;2.03;1.10;;;9.60;99.90;;;;;;5003158;28;20725;-83
2022/09/20 02:46:53;;;;;;;1.63;1.17;;;9.70;99.90;;;;;;5016052;28;20267;-85
2022/09/20 02:49:32;;;;;;;2.50;1.00;;;9.70;99.90;;;;;;5021091;28;20220;-83
2022/09/20 02:52:07;;;;;;;1.10;1.00;;;9.70;99.90;;;;;;4999986;28;20223;-83
2022/09/20 02:54:44;;;;;;;3.33;1.00;;;9.70;99.90;;;;;;5023886;28;20204;-83
2022/09/20 02:57:32;;;;;;;1.30;0.90;;;9.80;99.90;;;;;;5014082;28;20215;-85
2022/09/20 03:00:08;;;;;;;4.97;1.00;;;9.80;99.90;;;;;;5007508;28;20216;-83
2022/09/20 03:02:50;;;;;;;0.93;0.83;;;9.80;99.90;;;;;;4976056;28;20878;-83
2022/09/20 03:05:34;;;;;;;1.07;0.77;;;9.80;99.90;;;;;;4991034;28;20205;-83
2022/09/20 03:08:21;;;;;;;3.03;1.10;;;9.80;99.90;;;;;;4982275;28;20188;-83
2022/09/20 03:11:26;;;;;;;3.77;1.20;;;9.80;99.90;;;;;;4999428;28;20220;-84
2022/09/20 03:14:17;;;;;;;1.30;1.10;;;9.80;99.90;;;;;;4929964;29;20729;-83
2022/09/20 03:17:01;;;;;;;3.10;1.20;;;9.80;99.90;;;;;;4950431;28;20179;-83
2022/09/20 03:19:55;;;;;;;1.90;1.27;;;9.90;99.90;;;;;;5009366;28;20292;-83
2022/09/20 03:23:00;;;;;;;1.63;1.00;;;9.90;99.90;;;;;;5004733;28;20228;-83
2022/09/20 03:25:33;;;;;;;2.40;1.10;;;9.90;99.90;;;;;;4903859;29;20679;-83
2022/09/20 03:28:22;;;;;;;2.07;1.20;;;9.90;99.90;;;;;;4994199;28;20209;-83
2022/09/20 03:30:47;;;;;;;2.10;1.57;;;9.90;99.90;;;;;;4998749;28;20232;-82
2022/09/20 03:33:52;;;;;;;1.87;0.93;;;9.90;99.90;;;;;;4984458;28;20240;-82
2022/09/20 03:36:36;;;;;;;3.63;1.37;;;9.90;99.90;;;;;;4995233;28;20279;-83
2022/09/20 03:39:11;;;;;;;2.20;1.13;;;9.90;99.90;;;;;;4983500;28;20303;-82
2022/09/20 03:41:45;;;;;;;2.43;0.97;;;9.90;99.90;;;;;;5004611;28;20211;-83
2022/09/20 03:44:33;;;;;;;3.50;1.40;;;10.00;99.90;;;;;;5001989;28;20240;-83
2022/09/20 03:47:25;;;;;;;1.97;0.80;;;10.00;99.90;;;;;;4994854;28;20181;-83
2022/09/20 03:50:11;;;;;;;1.53;1.13;;;10.00;99.90;;;;;;5006444;28;20197;-82
2022/09/20 03:53:00;;;;;;;3.33;1.13;;;10.00;99.90;;;;;;4980921;28;20253;-83
2022/09/20 03:56:08;;;;;;;2.23;1.27;;;10.00;99.90;;;;;;4984116;28;20272;-83
2022/09/20 03:58:56;;;;;;;4.00;1.10;;;10.00;99.90;;;;;;5005133;28;20205;-83
2022/09/20 04:01:27;;;;;;;2.30;1.00;;;10.00;99.90;;;;;;5006187;28;20213;-83
2022/09/20 04:04:10;;;;;;;2.80;1.00;;;10.00;99.90;;;;;;5002139;28;20224;-81
2022/09/20 04:06:36;;;;;;;3.37;1.10;;;10.00;99.90;;;;;;5005505;28;20205;-82
2022/09/20 04:09:23;;;;;;;2.33;1.00;;;10.00;99.90;;;;;;5001699;28;20224;-82
2022/09/20 04:12:01;;;;;;;3.40;0.93;;;10.00;99.90;;;;;;4975788;28;20272;-83
2022/09/20 04:15:04;;;;;;;1.80;1.40;;;10.00;99.90;;;;;;4992303;28;20209;-83
2022/09/20 04:17:47;;;;;;;1.50;1.20;;;10.00;99.90;;;;;;4983759;28;20201;-83
2022/09/20 04:20:45;;;;;;;1.60;1.10;;;10.00;99.90;;;;;;4993018;28;20278;-83
2022/09/20 04:23:29;;;;;;;2.73;1.00;;;10.00;99.90;;;;;;5006351;28;20551;-83
2022/09/20 04:25:54;;;;;;;2.50;1.23;;;10.00;99.90;;;;;;5005318;28;20178;-83
2022/09/20 04:28:46;;;;;;;2.07;1.47;;;10.00;99.90;;;;;;5014796;28;20300;-83
2022/09/20 04:31:49;;;;;;;3.90;1.30;;;10.00;99.90;;;;;;5004950;28;20209;-82
2022/09/20 04:36:27;;;;;;;1.37;1.10;;;9.90;99.90;;;;;;4996192;28;20220;-83
2022/09/20 04:37:26;;;;;;;3.67;1.40;;;9.90;99.90;;;;;;5004218;28;20284;-84
2022/09/20 04:40:12;;;;;;;1.83;1.63;;;9.90;99.90;;;;;;4992401;28;20213;-83
2022/09/20 04:43:03;;;;;;;2.53;1.63;;;9.90;99.90;;;;;;5009810;28;20193;-83
2022/09/20 04:45:56;;;;;;;6.00;1.67;;;9.90;99.90;;;;;;5005764;28;20198;-83
2022/09/20 04:48:58;;;;;;;2.93;1.70;;;9.90;99.90;;;;;;5003681;28;20392;-83
2022/09/20 04:51:42;;;;;;;5.07;1.83;;;9.90;99.90;;;;;;4991452;28;20197;-83
2022/09/20 04:54:43;;;;;;;6.30;2.30;;;9.90;99.90;;;;;;5003466;28;20271;-83
2022/09/20 04:58:00;;;;;;;3.10;1.90;;;9.90;99.90;;;;;;5005591;28;20232;-83
2022/09/20 05:00:56;;;;;;;4.80;2.20;;;9.90;99.90;;;;;;4979318;28;20209;-84
2022/09/20 05:03:36;;;;;;;3.27;1.70;;;9.90;99.90;;;;;;4986443;28;20696;-81
2022/09/20 05:06:54;;;;;;;2.70;2.17;;;10.00;99.90;;;;;;5003314;28;20229;-81
2022/09/20 05:09:29;;;;;;;3.00;1.77;;;10.00;99.90;;;;;;4994959;28;20219;-81
2022/09/20 05:12:19;;;;;;;4.47;2.00;;;10.10;99.90;;;;;;5000895;28;20212;-81
2022/09/20 05:15:22;;;;;;;6.83;2.20;;;10.10;99.90;;;;;;5005827;28;20229;-81
2022/09/20 05:18:09;;;;;;;3.10;1.33;;;10.10;99.90;;;;;;4998044;28;20205;-81
2022/09/20 05:20:37;;;;;;;6.07;2.20;;;10.30;99.90;;;;;;5008910;28;20304;-81
2022/09/20 05:23:38;;;;;;;4.03;3.27;;;10.30;99.90;;;;;;4984666;28;20174;-81
2022/09/20 05:26:52;;;;;;;5.63;2.33;;;10.40;99.90;;;;;;4991793;28;20578;-81
2022/09/20 05:29:35;;;;;;;3.03;1.83;;;10.60;99.90;;;;;;4955007;28;20211;-79
2022/09/20 05:32:26;;;;;;;3.17;1.60;;;10.70;99.90;;;;;;4987528;28;20296;-78
2022/09/20 05:35:24;;;;;;;3.13;2.20;;;10.80;99.90;;;;;;5004716;28;20196;-78
2022/09/20 05:37:59;;;;;;;4.60;2.13;;;10.90;99.90;;;;;;4989759;28;20656;-78
2022/09/20 05:40:52;;;;;;;6.43;2.20;;;11.10;99.90;;;;;;4990072;28;20204;-77
2022/09/20 05:43:32;;;;;;;3.77;2.60;;;11.20;99.90;;;;;;5004953;28;20275;-81
2022/09/20 05:46:13;;;;;;;5.03;2.10;;;12.00;99.90;;;;;;5003797;28;20566;-81
2022/09/20 05:49:11;;;;;;;2.97;1.98;;;14.30;99.90;;;;;;4994638;28;20209;-82
2022/09/20 05:51:46;;;;;;;1.27;1.17;;;16.10;99.90;;;;;;4985295;28;20264;-79
2022/09/20 05:54:47;;;;;;;2.88;1.35;;;17.60;99.90;;;;;;5009849;28;20323;-79
2022/09/20 05:57:19;;;;;;;2.33;1.50;;;18.80;99.90;;;;;;5008224;28;20196;-79
2022/09/20 06:00:03;;;;;;;6.57;1.40;;;19.30;99.90;;;;;;4987530;28;20742;-80
2022/09/20 06:02:38;;;;;;;3.22;2.13;;;19.50;99.90;;;;;;5004983;28;20225;-80
2022/09/20 06:05:53;;;;;;;1.98;1.13;;;18.60;99.90;;;;;;5014286;28;20173;-81
2022/09/20 06:09:00;;;;;;;1.92;1.08;;;16.90;99.90;;;;;;4909061;28;20225;-80
2022/09/20 06:11:47;;;;;;;1.10;0.98;;;17.30;99.90;;;;;;5001192;28;20220;-81
2022/09/20 06:14:41;;;;;;;4.13;1.25;;;18.40;99.90;;;;;;4986288;28;20240;-78
2022/09/20 06:17:17;;;;;;;2.40;1.20;;;17.90;99.90;;;;;;4980366;28;20178;-78
2022/09/20 06:20:03;;;;;;;4.57;1.00;;;17.30;99.90;;;;;;5009565;28;20181;-81
2022/09/20 06:22:38;;;;;;;2.95;1.05;;;16.20;99.90;;;;;;5010423;28;20193;-81
2022/09/20 06:25:42;;;;;;;4.13;1.35;;;15.60;99.90;;;;;;5006991;28;20717;-81
2022/09/20 06:28:15;;;;;;;1.50;1.30;;;15.00;99.90;;;;;;5004567;28;20251;-81
2022/09/20 06:30:49;;;;;;;4.35;1.65;;;14.50;99.90;;;;;;5011261;28;20679;-81
2022/09/20 06:33:20;;;;;;;2.95;1.23;;;13.90;99.90;;;;;;4988266;28;20207;-81
2022/09/20 06:35:54;;;;;;;1.20;1.00;;;13.90;99.90;;;;;;5005144;28;20247;-82
2022/09/20 06:41:29;;;;;;;2.90;1.23;;;14.20;99.90;;;;;;5009653;28;20361;-82
2022/09/20 06:43:57;;;;;;;3.53;1.88;;;13.80;99.90;;;;;;5001368;28;20178;-82
2022/09/20 06:46:27;;;;;;;4.72;1.70;;;13.60;99.90;;;;;;5008760;28;20165;-81
2022/09/20 06:48:54;;;;;;;3.42;1.50;;;13.50;99.90;;;;;;4985786;28;20613;-81
2022/09/20 06:51:21;;;;;;;4.10;1.30;;;13.30;99.90;;;;;;5008220;28;20228;-82
2022/09/20 06:53:47;;;;;;;5.28;1.55;;;13.40;99.90;;;;;;4990550;28;20264;-82
2022/09/20 06:56:29;;;;;;;2.60;1.15;;;13.30;99.90;;;;;;5010703;28;20204;-81
2022/09/20 06:58:55;;;;;;;2.97;1.30;;;13.40;99.90;;;;;;5006959;28;20232;-82
2022/09/20 07:01:21;;;;;;;4.30;1.60;;;13.40;99.90;;;;;;5003359;28;20189;-82
2022/09/20 07:03:47;;;;;;;3.45;1.60;;;13.40;99.90;;;;;;5012869;28;20212;-82
2022/09/20 07:06:18;;;;;;;2.72;2.00;;;13.40;99.90;;;;;;4993399;28;20217;-81
2022/09/20 07:08:44;;;;;;;4.78;1.50;;;13.50;99.90;;;;;;5003742;28;20210;-82
2022/09/20 07:11:14;;;;;;;1.88;1.70;;;13.60;99.90;;;;;;5004942;28;20228;-81
2022/09/20 07:13:40;;;;;;;4.45;1.67;;;13.80;99.90;;;;;;4979561;28;20182;-81
2022/09/20 07:16:07;;;;;;;4.18;2.10;;;14.80;99.90;;;;;;5005009;28;20261;-81
2022/09/20 07:18:33;;;;;;;2.47;1.40;;;16.10;99.90;;;;;;5007477;28;20201;-82
2022/09/20 07:21:00;;;;;;;4.75;1.65;;;17.50;99.90;;;;;;5012020;28;20261;-79
2022/09/20 07:23:28;;;;;;;3.22;1.27;;;19.00;99.90;;;;;;5008071;28;20200;-81
2022/09/20 07:25:59;;;;;;;1.38;0.93;;;19.70;99.90;;;;;;5007572;28;20222;-82
2022/09/20 07:28:28;;;;;;;2.53;1.15;;;20.70;99.90;;;;;;5012243;28;20644;-81
2022/09/20 07:30:54;;;;;;;4.22;1.38;;;20.90;99.90;;;;;;4988503;28;20579;-80
2022/09/20 07:33:20;;;;;;;2.80;1.30;;;21.30;99.90;;;;;;5013388;28;20212;-81
2022/09/20 07:35:47;;;;;;;3.35;1.42;;;21.70;99.90;;;;;;5008030;28;20205;-81
2022/09/20 07:38:14;;;;;;;2.05;1.23;;;21.40;99.90;;;;;;4998318;28;20284;-81
2022/09/20 07:40:40;;;;;;;2.22;1.50;;;21.30;99.90;;;;;;4994290;28;20230;-81
2022/09/20 07:43:06;;;;;;;3.25;1.58;;;21.30;99.90;;;;;;5005281;28;20236;-81
2022/09/20 07:45:33;;;;;;;2.65;1.27;;;21.60;99.90;;;;;;4991821;28;20300;-81
2022/09/20 07:48:04;;;;;;;2.15;1.30;;;22.00;99.90;;;;;;5013161;28;20235;-80
2022/09/20 07:50:30;;;;;;;2.80;1.25;;;22.00;99.90;;;;;;4993787;28;20204;-81
2022/09/20 07:52:56;;;;;;;3.80;1.33;;;22.20;99.90;;;;;;5008762;28;20181;-81
2022/09/20 07:55:22;;;;;;;2.42;1.27;;;22.00;99.90;;;;;;5001894;28;20240;-81
2022/09/20 07:57:48;;;;;;;4.70;1.42;;;22.10;99.90;;;;;;5020106;28;20729;-81
2022/09/20 08:00:14;;;;;;;3.65;1.38;;;22.40;99.90;;;;;;5015480;28;20205;-81
2022/09/20 08:02:39;;;;;;;3.70;1.33;;;22.40;99.90;;;;;;5014006;28;20244;-81
2022/09/20 08:05:05;;;;;;;4.18;1.55;;;22.20;99.90;;;;;;4994418;28;20169;-82
2022/09/20 08:07:31;;;;;;;2.58;1.38;;;22.30;99.90;;;;;;5013018;28;20509;-82
2022/09/20 08:09:56;;;;;;;3.78;1.52;;;22.00;99.90;;;;;;5008301;28;20312;-82
2022/09/20 08:12:22;;;;;;;2.85;1.60;;;21.70;99.90;;;;;;5012931;28;20314;-81
2022/09/20 08:14:48;;;;;;;3.72;1.40;;;21.70;99.90;;;;;;5011045;28;20227;-80
2022/09/20 08:17:13;;;;;;;4.50;1.77;;;21.70;99.90;;;;;;4990443;28;20585;-81
2022/09/20 08:19:41;;;;;;;4.60;1.80;;;21.20;99.90;;;;;;5016422;28;20223;-81
2022/09/20 08:22:09;;;;;;;2.88;1.30;;;21.20;99.90;;;;;;5014593;28;20272;-81
2022/09/20 08:24:35;;;;;;;3.33;1.45;;;21.80;99.90;;;;;;5011280;28;20221;-81
2022/09/20 08:27:00;;;;;;;5.22;1.60;;;21.70;99.90;;;;;;5010754;28;20229;-81
2022/09/20 08:29:26;;;;;;;6.28;1.92;;;21.60;99.90;;;;;;5012242;28;20213;-81
2022/09/20 08:31:51;;;;;;;5.03;1.75;;;21.40;99.90;;;;;;5009743;28;20744;-80
2022/09/20 08:34:17;;;;;;;5.63;1.88;;;21.40;99.90;;;;;;5007837;28;20507;-80
2022/09/20 08:36:45;;;;;;;3.58;1.42;;;21.20;99.90;;;;;;5009204;28;20197;-81
2022/09/20 08:39:13;;;;;;;3.35;1.60;;;21.60;99.90;;;;;;5017113;28;20224;-80
2022/09/20 08:41:44;;;;;;;7.43;1.92;;;20.90;99.90;;;;;;5012419;28;20245;-81
2022/09/20 08:44:15;;;;;;;5.22;3.08;;;20.70;99.90;;;;;;5010378;28;20259;-81
2022/09/20 08:46:44;;;;;;;3.90;2.00;;;21.00;99.90;;;;;;5012301;28;20238;-80
2022/09/20 08:49:27;;;;;;;4.32;1.85;;;20.30;99.90;;;;;;5013638;28;20217;-80
2022/09/20 08:51:53;;;;;;;4.28;1.70;;;20.70;99.90;;;;;;4988539;28;20233;-80
2022/09/20 08:54:21;;;;;;;2.53;1.85;;;20.40;99.90;;;;;;5014599;28;20201;-80
2022/09/20 08:56:49;;;;;;;4.20;2.13;;;20.10;99.90;;;;;;4991930;28;20201;-80
2022/09/20 08:59:18;;;;;;;3.60;1.70;;;20.10;99.90;;;;;;5015177;28;20209;-78
2022/09/20 09:01:45;;;;;;;3.53;2.03;;;20.00;99.90;;;;;;5008479;28;20727;-80
2022/09/20 09:04:12;;;;;;;3.67;2.20;;;20.00;99.90;;;;;;5016668;28;20237;-80
2022/09/20 09:06:38;;;;;;;4.50;1.48;;;19.90;99.90;;;;;;5013538;28;20189;-81
2022/09/20 09:09:05;;;;;;;4.00;1.80;;;19.60;99.90;;;;;;5008495;28;20703;-80
2022/09/20 09:11:30;;;;;;;4.35;1.85;;;19.50;99.90;;;;;;5008599;28;20565;-81
2022/09/20 09:14:03;;;;;;;3.50;2.08;;;19.70;99.90;;;;;;5010680;28;20251;-81
2022/09/20 09:16:32;;;;;;;5.35;2.60;;;19.80;99.90;;;;;;5016177;28;20532;-81
2022/09/20 09:19:17;;;;;;;4.72;2.22;;;20.20;99.90;;;;;;5009329;28;20283;-80
2022/09/20 09:21:43;;;;;;;4.65;1.98;;;20.10;99.90;;;;;;5007542;28;20209;-82
2022/09/20 09:24:18;;;;;;;4.57;2.45;;;19.20;99.90;;;;;;5004240;28;20215;-80
2022/09/20 09:26:45;;;;;;;4.20;2.53;;;18.30;99.90;;;;;;5003450;28;20336;-81
2022/09/20 09:29:17;;;;;;;3.90;1.90;;;18.50;99.90;;;;;;4990561;28;20248;-80
2022/09/20 09:31:44;;;;;;;3.88;2.53;;;19.00;99.90;;;;;;5012190;28;20717;-81
2022/09/20 09:34:28;;;;;;;3.70;1.88;;;19.10;99.90;;;;;;4999856;28;20213;-80
2022/09/20 09:36:55;;;;;;;4.75;2.45;;;19.60;99.90;;;;;;4991367;28;20558;-81
2022/09/20 09:39:30;;;;;;;5.35;2.20;;;19.90;99.90;;;;;;4981609;28;20743;-81
2022/09/20 09:41:59;;;;;;;6.13;2.50;;;19.90;99.90;;;;;;5003769;28;20205;-80
2022/09/20 09:44:34;;;;;;;3.38;2.25;;;19.70;99.90;;;;;;5001195;28;20208;-80
2022/09/20 09:47:00;;;;;;;4.68;2.40;;;19.60;99.90;;;;;;4988429;28;20177;-81
2022/09/20 09:49:34;;;;;;;5.60;2.03;;;19.20;99.90;;;;;;5006396;28;20280;-81
2022/09/20 09:52:04;;;;;;;3.75;2.00;;;19.10;99.90;;;;;;4987576;28;20578;-82
2022/09/20 09:54:36;;;;;;;6.45;2.20;;;18.60;99.90;;;;;;5010010;28;20196;-82
2022/09/20 09:57:20;;;;;;;6.13;2.67;;;18.30;99.90;;;;;;5009917;28;20205;-81
2022/09/20 10:00:12;;;;;;;4.57;2.40;;;18.20;99.90;;;;;;4992245;28;20257;-82
2022/09/20 10:02:54;;;;;;;2.70;2.25;;;17.70;99.90;;;;;;4990586;28;20209;-82
2022/09/20 10:05:25;;;;;;;4.97;2.53;;;18.50;99.90;;;;;;5016003;28;20206;-82
2022/09/20 10:08:06;;;;;;;3.22;2.35;;;18.70;99.90;;;;;;5023829;28;20245;-82
2022/09/20 10:10:31;;;;;;;4.88;2.65;;;19.00;99.90;;;;;;4999477;28;20231;-81
2022/09/20 10:13:17;;;;;;;5.43;2.83;;;18.50;99.90;;;;;;5009681;28;20202;-80
2022/09/20 10:15:54;;;;;;;6.43;2.50;;;18.00;99.90;;;;;;5015109;28;20225;-82
2022/09/20 10:18:25;;;;;;;4.95;2.70;;;17.90;99.90;;;;;;4995077;28;20205;-82
2022/09/20 10:21:14;;;;;;;6.72;3.10;;;18.30;99.90;;;;;;5017759;28;20235;-82
2022/09/20 10:23:48;;;;;;;6.80;3.28;;;18.20;99.90;;;;;;5015925;28;20237;-82
2022/09/20 10:26:22;;;;;;;5.82;2.78;;;18.30;99.90;;;;;;4991196;28;20232;-81
2022/09/20 10:29:14;;;;;;;3.83;2.15;;;18.60;99.90;;;;;;5006613;28;20250;-81
2022/09/20 10:31:40;;;;;;;4.25;2.47;;;19.10;99.90;;;;;;4993873;28;20618;-80
2022/09/20 10:34:14;;;;;;;8.63;3.20;;;19.30;99.90;;;;;;5003832;28;20292;-82
2022/09/20 10:36:59;;;;;;;5.03;2.50;;;18.40;99.90;;;;;;5007635;28;20201;-82
2022/09/20 10:39:33;;;;;;;3.65;2.53;;;18.40;99.90;;;;;;4981997;28;20228;-83
2022/09/20 10:45:18;;;;;;;4.07;2.28;;;18.20;99.90;;;;;;5001420;28;21115;-83
2022/09/20 10:47:53;;;;;;;7.40;2.67;;;18.70;99.90;;;;;;5013425;28;20220;-83
2022/09/20 10:50:40;;;;;;;5.32;2.53;;;18.10;99.90;;;;;;5008207;28;20218;-83
2022/09/20 10:53:39;;;;;;;5.15;2.30;;;17.80;99.90;;;;;;4981921;28;20173;-83
2022/09/20 10:56:23;;;;;;;3.00;2.60;;;17.40;99.90;;;;;;4988885;28;20173;-84
2022/09/20 10:59:16;;;;;;;3.85;2.50;;;17.20;99.90;;;;;;5003779;28;20189;-83
2022/09/20 11:02:12;;;;;;;5.07;2.67;;;16.90;99.90;;;;;;4992097;28;20205;-82
2022/09/20 11:05:07;;;;;;;4.05;2.10;;;17.00;99.90;;;;;;5013405;28;20275;-82
2022/09/20 11:08:10;;;;;;;4.38;1.90;;;16.80;99.90;;;;;;4994897;28;20235;-82
2022/09/20 11:11:16;;;;;;;5.35;2.22;;;16.70;99.90;;;;;;5007995;28;20283;-81
2022/09/20 11:14:04;;;;;;;4.40;2.50;;;16.30;99.90;;;;;;4975316;28;20209;-83
2022/09/20 11:17:11;;;;;;;5.03;2.58;;;16.20;99.90;;;;;;5010932;28;20201;-83
2022/09/20 11:19:49;;;;;;;4.70;2.33;;;15.90;99.90;;;;;;4973282;28;20204;-84
2022/09/20 11:22:50;;;;;;;5.07;1.92;;;15.80;99.90;;;;;;4999353;28;20217;-84
2022/09/20 11:25:43;;;;;;;4.07;1.70;;;15.50;99.90;;;;;;5017775;28;20199;-83
2022/09/20 11:28:18;;;;;;;6.00;3.05;;;15.20;99.90;;;;;;4996593;28;20205;-84
2022/09/20 11:31:06;;;;;;;3.67;1.20;;;15.00;99.90;;;;;;5012384;28;20204;-83
2022/09/20 11:33:43;;;;;;;4.22;1.33;;;14.60;99.90;;;;;;4988149;28;20232;-84
2022/09/20 11:36:44;;;;;;;2.63;1.35;;;14.50;99.90;;;;;;5006543;28;20201;-83
2022/09/20 11:39:18;;;;;;;2.63;1.15;;;14.20;99.90;;;;;;4994819;28;20205;-82
2022/09/20 11:41:44;;;;;;;2.95;1.20;;;14.10;99.90;;;;;;5016036;28;20237;-82
2022/09/20 11:44:14;;;;;;;2.28;1.20;;;14.10;99.90;;;;;;5013399;28;20304;-83
2022/09/20 11:47:05;;;;;;;2.25;1.20;;;14.10;99.90;;;;;;5013239;28;20272;-82
2022/09/20 11:50:12;;;;;;;5.10;1.60;;;14.30;99.90;;;;;;5012282;28;20295;-82
2022/09/20 11:53:13;;;;;;;3.58;1.65;;;14.30;99.90;;;;;;5008197;28;20742;-83
2022/09/20 11:56:01;;;;;;;2.38;1.45;;;14.50;99.90;;;;;;5013373;28;20216;-83
2022/09/20 11:58:27;;;;;;;4.72;1.92;;;14.70;99.90;;;;;;5007652;28;20208;-83
2022/09/20 12:00:56;;;;;;;3.42;2.10;;;14.80;99.90;;;;;;4994206;28;20286;-83
2022/09/20 12:03:29;;;;;;;3.20;1.83;;;15.00;99.90;;;;;;4994528;28;20204;-82
2022/09/20 12:06:20;;;;;;;2.70;2.20;;;15.30;99.90;;;;;;4993766;28;20780;-84
2022/09/20 12:08:49;;;;;;;4.90;2.42;;;15.50;99.90;;;;;;4988837;28;20584;-83
2022/09/20 12:11:16;;;;;;;5.47;2.88;;;15.70;99.90;;;;;;5006973;28;20204;-82
2022/09/20 12:13:52;;;;;;;8.10;3.40;;;15.70;99.90;;;;;;5009902;28;20220;-83
2022/09/20 12:16:36;;;;;;;4.65;3.17;;;15.70;99.90;;;;;;5009496;28;20197;-83
2022/09/20 12:19:06;;;;;;;4.78;3.22;;;15.90;99.90;;;;;;5014855;28;20223;-83
2022/09/20 12:21:57;;;;;;;3.92;2.70;;;15.80;99.90;;;;;;5014598;28;20259;-82
2022/09/20 12:24:32;;;;;;;5.53;2.88;;;15.80;99.90;;;;;;4987186;28;20316;-83
2022/09/20 12:27:00;;;;;;;4.55;3.33;;;15.70;99.90;;;;;;4989194;28;20215;-83
2022/09/20 12:29:26;;;;;;;5.70;3.20;;;15.70;99.90;;;;;;5010842;28;20235;-82
2022/09/20 12:31:57;;;;;;;4.13;2.55;;;15.70;99.90;;;;;;5010879;28;20197;-83
2022/09/20 12:34:25;;;;;;;5.18;2.03;;;15.30;99.90;;;;;;4991474;28;20223;-81
2022/09/20 12:36:54;;;;;;;3.20;2.00;;;15.30;99.90;;;;;;5003728;28;20212;-83
2022/09/20 12:39:24;;;;;;;3.47;2.03;;;15.10;99.90;;;;;;5010370;28;20197;-83
2022/09/20 12:42:10;;;;;;;4.22;1.80;;;15.20;99.90;;;;;;4989700;28;20250;-83
2022/09/20 12:45:00;;;;;;;3.03;1.67;;;15.40;99.90;;;;;;5005871;28;20205;-82
2022/09/20 12:47:29;;;;;;;4.95;1.70;;;15.70;99.90;;;;;;4975857;28;20201;-83
2022/09/20 12:52:56;;;;;;;3.05;2.15;;;15.70;99.90;;;;;;5004390;28;20177;-83
2022/09/20 12:55:25;;;;;;;6.53;3.20;;;15.70;99.90;;;;;;5011755;28;20201;-83
2022/09/20 12:57:57;;;;;;;3.42;2.00;;;15.50;99.90;;;;;;4990244;28;20342;-83
2022/09/20 13:00:49;;;;;;;1.30;0.88;;;15.30;99.90;;;;;;5011545;28;20201;-83
2022/09/20 13:03:20;;;;;;;1.83;1.10;;;14.80;99.90;;;;;;4984695;28;20208;-83
2022/09/20 13:05:51;;;;;;;1.65;0.70;;;14.60;99.90;;;;;;5010373;28;20204;-83
2022/09/20 13:08:22;;;;;;;0.60;0.60;;;14.40;99.90;;;;;;4989784;28;20207;-83
2022/09/20 13:11:12;;;;;;;1.27;0.77;;;14.20;99.90;;;;;;5004121;28;20209;-82
2022/09/20 13:13:56;;;;;;;1.08;0.80;;;14.10;99.90;;;;;;5009313;28;20197;-83
2022/09/20 13:16:53;;;;;;;2.33;1.15;;;13.90;99.90;;;;;;5007603;28;20201;-83
2022/09/20 13:19:29;;;;;;;0.47;0.35;;;13.80;99.90;;;;;;5012155;28;20691;-83
2022/09/20 13:22:19;;;;;;;0.95;0.88;;;13.60;99.90;;;;;;4997773;28;20212;-83
2022/09/20 13:24:47;;;;;;;1.20;0.60;;;13.60;99.90;;;;;;4998340;28;20681;-84
2022/09/20 13:27:36;;;;;;;1.33;0.77;;;13.80;99.90;;;;;;5007116;28;20232;-84
2022/09/20 13:30:31;;;;;;;2.17;0.60;;;14.10;99.90;;;;;;5011457;28;20274;-83
2022/09/20 13:33:13;;;;;;;1.48;0.82;;;14.40;99.90;;;;;;4994835;28;20272;-81
2022/09/20 13:35:40;;;;;;;1.75;0.90;;;14.70;99.90;;;;;;5012519;28;20208;-82
2022/09/20 13:38:08;;;;;;;0.82;0.60;;;15.00;99.90;;;;;;4997332;28;20186;-82
2022/09/20 13:40:42;;;;;;;2.20;1.00;;;15.20;99.90;;;;;;4996619;28;20193;-84
2022/09/20 13:43:22;;;;;;;1.67;0.60;;;15.30;99.90;;;;;;4991416;28;20247;-83
2022/09/20 13:45:52;;;;;;;2.70;1.42;;;15.40;99.90;;;;;;4994024;28;20255;-83
2022/09/20 13:48:18;;;;;;;3.03;1.20;;;15.40;99.90;;;;;;4986315;28;20482;-83
2022/09/20 13:50:43;;;;;;;3.45;1.25;;;15.30;99.90;;;;;;4990065;28;20208;-84
2022/09/20 13:53:17;;;;;;;0.60;0.60;;;15.20;99.90;;;;;;5007906;28;20217;-83
2022/09/20 13:55:44;;;;;;;1.95;0.90;;;15.10;99.90;;;;;;5010782;28;20177;-83
2022/09/20 13:58:28;;;;;;;1.50;1.02;;;15.10;99.90;;;;;;5010107;28;20300;-84